createdAt,value
2023-03-03T00:00:55.261Z,1016.29
2023-03-03T00:01:55.275Z,1016.28
2023-03-03T00:02:55.251Z,1016.27
2023-03-03T00:03:55.236Z,1016.27
2023-03-03T00:04:55.227Z,1016.27
2023-03-03T00:05:55.219Z,1016.29
2023-03-03T00:06:55.201Z,1016.32
2023-03-03T00:07:55.180Z,1016.33
2023-03-03T00:08:55.180Z,1016.35
2023-03-03T00:09:55.150Z,1016.34
2023-03-03T00:10:55.145Z,1016.30
2023-03-03T00:11:55.158Z,1016.36
2023-03-03T00:12:55.121Z,1016.36
2023-03-03T00:13:55.136Z,1016.35
2023-03-03T00:14:55.112Z,1016.37
2023-03-03T00:15:55.140Z,1016.34
2023-03-03T00:16:55.094Z,1016.32
2023-03-03T00:17:55.097Z,1016.32
2023-03-03T00:18:55.067Z,1016.31
2023-03-03T00:19:55.056Z,1016.33
2023-03-03T00:20:55.030Z,1016.34
2023-03-03T00:21:55.031Z,1016.40
2023-03-03T00:22:55.027Z,1016.39
2023-03-03T00:23:55.006Z,1016.39
2023-03-03T00:24:54.997Z,1016.36
2023-03-03T00:25:55.011Z,1016.33
2023-03-03T00:26:54.994Z,1016.33
2023-03-03T00:27:54.948Z,1016.34
2023-03-03T00:28:54.941Z,1016.32
2023-03-03T00:29:54.971Z,1016.36
2023-03-03T00:30:54.957Z,1016.31
2023-03-03T00:31:54.974Z,1016.32
2023-03-03T00:32:54.922Z,1016.30
2023-03-03T00:33:55.014Z,1016.35
2023-03-03T00:34:54.886Z,1016.33
2023-03-03T00:35:54.932Z,1016.34
2023-03-03T00:36:54.855Z,1016.30
2023-03-03T00:37:54.851Z,1016.41
2023-03-03T00:38:54.829Z,1016.41
2023-03-03T00:39:54.828Z,1016.40
2023-03-03T00:40:54.820Z,1016.42
2023-03-03T00:41:54.806Z,1016.42
2023-03-03T00:42:54.802Z,1016.46
2023-03-03T00:43:54.773Z,1016.43
2023-03-03T00:44:54.762Z,1016.46
2023-03-03T00:45:54.861Z,1016.43
2023-03-03T00:46:54.752Z,1016.45
2023-03-03T00:47:54.743Z,1016.43
2023-03-03T00:48:54.735Z,1016.53
2023-03-03T00:49:54.735Z,1016.54
2023-03-03T00:50:54.710Z,1016.54
2023-03-03T00:51:54.695Z,1016.56
2023-03-03T00:52:54.686Z,1016.58
2023-03-03T00:53:54.675Z,1016.55
2023-03-03T00:54:54.662Z,1016.56
2023-03-03T00:55:54.656Z,1016.54
2023-03-03T00:56:54.644Z,1016.52
2023-03-03T00:57:54.638Z,1016.54
2023-03-03T00:58:54.650Z,1016.52
2023-03-03T00:59:54.602Z,1016.52
2023-03-03T01:00:54.598Z,1016.53
2023-03-03T01:01:54.694Z,1016.52
2023-03-03T01:02:54.660Z,1016.50
2023-03-03T01:03:54.544Z,1016.49
2023-03-03T01:04:54.542Z,1016.51
2023-03-03T01:05:54.539Z,1016.52
2023-03-03T01:06:54.524Z,1016.54
2023-03-03T01:07:54.528Z,1016.51
2023-03-03T01:08:54.500Z,1016.52
2023-03-03T01:09:54.493Z,1016.51
2023-03-03T01:10:54.494Z,1016.49
2023-03-03T01:11:54.458Z,1016.56
2023-03-03T01:12:54.461Z,1016.56
2023-03-03T01:13:54.541Z,1016.56
2023-03-03T01:14:54.431Z,1016.50
2023-03-03T01:15:54.527Z,1016.56
2023-03-03T01:16:54.410Z,1016.51
2023-03-03T01:17:54.442Z,1016.61
2023-03-03T01:18:54.387Z,1016.59
2023-03-03T01:19:54.369Z,1016.61
2023-03-03T01:20:54.360Z,1016.63
2023-03-03T01:21:54.359Z,1016.65
2023-03-03T01:22:54.356Z,1016.67
2023-03-03T01:23:54.328Z,1016.63
2023-03-03T01:24:54.312Z,1016.68
2023-03-03T01:25:54.298Z,1016.71
2023-03-03T01:26:54.290Z,1016.64
2023-03-03T01:27:54.307Z,1016.66
2023-03-03T01:28:54.259Z,1016.63
2023-03-03T01:29:54.255Z,1016.65
2023-03-03T01:30:54.319Z,1016.65
2023-03-03T01:31:54.273Z,1016.65
2023-03-03T01:32:54.222Z,1016.65
2023-03-03T01:33:54.265Z,1016.69
2023-03-03T01:34:54.197Z,1016.68
2023-03-03T01:35:54.261Z,1016.65
2023-03-03T01:36:54.185Z,1016.68
2023-03-03T01:37:54.162Z,1016.68
2023-03-03T01:38:54.161Z,1016.68
2023-03-03T01:39:54.141Z,1016.65
2023-03-03T01:40:54.129Z,1016.68
2023-03-03T01:41:54.120Z,1016.72
2023-03-03T01:42:54.105Z,1016.71
2023-03-03T01:43:54.115Z,1016.70
2023-03-03T01:44:54.085Z,1016.69
2023-03-03T01:45:54.074Z,1016.68
2023-03-03T01:46:54.071Z,1016.71
2023-03-03T01:47:54.065Z,1016.70
2023-03-03T01:48:54.075Z,1016.71
2023-03-03T01:49:54.054Z,1016.74
2023-03-03T01:50:54.025Z,1016.72
2023-03-03T01:51:54.020Z,1016.70
2023-03-03T01:52:54.004Z,1016.69
2023-03-03T01:53:54.013Z,1016.70
2023-03-03T01:54:53.981Z,1016.69
2023-03-03T01:55:53.978Z,1016.70
2023-03-03T01:56:53.957Z,1016.63
2023-03-03T01:57:53.940Z,1016.66
2023-03-03T01:58:53.951Z,1016.58
2023-03-03T01:59:53.935Z,1016.61
2023-03-03T02:00:53.898Z,1016.60
2023-03-03T02:01:53.947Z,1016.60
2023-03-03T02:02:53.912Z,1016.63
2023-03-03T02:03:53.886Z,1016.60
2023-03-03T02:04:53.866Z,1016.62
2023-03-03T02:05:53.869Z,1016.62
2023-03-03T02:06:53.842Z,1016.67
2023-03-03T02:07:53.836Z,1016.65
2023-03-03T02:08:53.826Z,1016.70
2023-03-03T02:09:53.814Z,1016.72
2023-03-03T02:10:53.813Z,1016.71
2023-03-03T02:11:53.793Z,1016.71
2023-03-03T02:12:53.780Z,1016.70
2023-03-03T02:13:53.774Z,1016.70
2023-03-03T02:14:53.778Z,1016.71
2023-03-03T02:15:53.740Z,1016.71
2023-03-03T02:16:53.738Z,1016.78
2023-03-03T02:17:53.730Z,1016.81
2023-03-03T02:18:53.727Z,1016.80
2023-03-03T02:19:53.698Z,1016.82
2023-03-03T02:20:53.694Z,1016.77
2023-03-03T02:21:54.252Z,1016.79
2023-03-03T02:22:53.657Z,1016.77
2023-03-03T02:23:53.678Z,1016.75
2023-03-03T02:24:53.634Z,1016.73
2023-03-03T02:25:53.633Z,1016.71
2023-03-03T02:26:53.624Z,1016.71
2023-03-03T02:27:53.606Z,1016.73
2023-03-03T02:28:53.605Z,1016.72
2023-03-03T02:29:53.583Z,1016.74
2023-03-03T02:30:53.567Z,1016.71
2023-03-03T02:31:53.686Z,1016.73
2023-03-03T02:32:53.548Z,1016.73
2023-03-03T02:33:53.552Z,1016.73
2023-03-03T02:34:53.519Z,1016.70
2023-03-03T02:35:53.547Z,1016.71
2023-03-03T02:36:53.524Z,1016.72
2023-03-03T02:37:53.513Z,1016.74
2023-03-03T02:38:53.494Z,1016.75
2023-03-03T02:39:53.471Z,1016.72
2023-03-03T02:40:53.456Z,1016.69
2023-03-03T02:41:53.464Z,1016.73
2023-03-03T02:42:53.447Z,1016.72
2023-03-03T02:43:53.463Z,1016.76
2023-03-03T02:44:53.424Z,1016.78
2023-03-03T02:45:53.503Z,1016.77
2023-03-03T02:46:53.398Z,1016.78
2023-03-03T02:47:53.384Z,1016.76
2023-03-03T02:48:53.366Z,1016.76
2023-03-03T02:49:53.378Z,1016.78
2023-03-03T02:50:53.346Z,1016.83
2023-03-03T02:51:53.347Z,1016.83
2023-03-03T02:52:53.336Z,1016.80
2023-03-03T02:53:53.342Z,1016.76
2023-03-03T02:54:53.314Z,1016.80
2023-03-03T02:55:53.292Z,1016.83
2023-03-03T02:56:53.291Z,1016.83
2023-03-03T02:57:53.273Z,1016.93
2023-03-03T02:58:53.246Z,1016.94
2023-03-03T02:59:53.253Z,1016.95
2023-03-03T03:00:53.304Z,1016.97
2023-03-03T03:01:53.216Z,1016.91
2023-03-03T03:02:53.197Z,1016.92
2023-03-03T03:03:53.246Z,1016.95
2023-03-03T03:04:53.188Z,1016.95
2023-03-03T03:05:53.180Z,1016.95
2023-03-03T03:06:53.176Z,1016.96
2023-03-03T03:07:53.158Z,1016.96
2023-03-03T03:08:53.141Z,1016.99
2023-03-03T03:09:53.161Z,1017.02
2023-03-03T03:10:53.107Z,1016.98
2023-03-03T03:11:53.110Z,1017.01
2023-03-03T03:12:53.100Z,1017.01
2023-03-03T03:13:53.092Z,1016.98
2023-03-03T03:14:53.089Z,1017.04
2023-03-03T03:15:53.074Z,1016.99
2023-03-03T03:16:53.086Z,1016.96
2023-03-03T03:17:53.050Z,1016.96
2023-03-03T03:18:53.031Z,1016.91
2023-03-03T03:19:53.034Z,1016.92
2023-03-03T03:20:52.997Z,1016.94
2023-03-03T03:21:52.989Z,1016.96
2023-03-03T03:22:52.986Z,1017.00
2023-03-03T03:23:52.978Z,1016.98
2023-03-03T03:24:52.964Z,1017.00
2023-03-03T03:25:52.968Z,1016.98
2023-03-03T03:26:52.962Z,1017.00
2023-03-03T03:27:52.927Z,1016.99
2023-03-03T03:28:53.086Z,1016.98
2023-03-03T03:29:52.937Z,1016.96
2023-03-03T03:30:52.931Z,1017.02
2023-03-03T03:31:53.045Z,1016.97
2023-03-03T03:32:52.861Z,1016.99
2023-03-03T03:33:52.853Z,1016.98
2023-03-03T03:34:52.862Z,1016.99
2023-03-03T03:35:52.924Z,1017.01
2023-03-03T03:36:52.829Z,1016.99
2023-03-03T03:37:52.836Z,1017.03
2023-03-03T03:38:52.818Z,1017.01
2023-03-03T03:39:52.805Z,1016.99
2023-03-03T03:40:52.780Z,1017.02
2023-03-03T03:41:52.797Z,1016.98
2023-03-03T03:42:52.780Z,1016.99
2023-03-03T03:43:52.757Z,1017.01
2023-03-03T03:44:52.740Z,1017.01
2023-03-03T03:45:52.805Z,1017.10
2023-03-03T03:46:52.700Z,1017.12
2023-03-03T03:47:52.709Z,1017.19
2023-03-03T03:48:52.694Z,1017.21
2023-03-03T03:49:52.697Z,1017.23
2023-03-03T03:50:52.671Z,1017.23
2023-03-03T03:51:52.662Z,1017.25
2023-03-03T03:52:52.636Z,1017.25
2023-03-03T03:53:52.662Z,1017.27
2023-03-03T03:54:52.632Z,1017.27
2023-03-03T03:55:52.620Z,1017.27
2023-03-03T03:56:52.594Z,1017.28
2023-03-03T03:57:52.627Z,1017.26
2023-03-03T03:58:52.585Z,1017.25
2023-03-03T03:59:52.575Z,1017.24
2023-03-03T04:00:52.551Z,1017.19
2023-03-03T04:01:52.557Z,1017.22
2023-03-03T04:02:52.681Z,1017.23
2023-03-03T04:03:52.537Z,1017.26
2023-03-03T04:04:52.537Z,1017.21
2023-03-03T04:05:52.503Z,1017.22
2023-03-03T04:06:52.499Z,1017.28
2023-03-03T04:07:52.480Z,1017.27
2023-03-03T04:08:52.475Z,1017.27
2023-03-03T04:09:52.469Z,1017.28
2023-03-03T04:10:52.452Z,1017.27
2023-03-03T04:11:52.436Z,1017.29
2023-03-03T04:12:52.430Z,1017.23
2023-03-03T04:13:52.435Z,1017.17
2023-03-03T04:14:52.409Z,1017.17
2023-03-03T04:15:52.522Z,1017.16
2023-03-03T04:16:52.388Z,1017.20
2023-03-03T04:17:52.386Z,1017.23
2023-03-03T04:18:52.368Z,1017.24
2023-03-03T04:19:52.488Z,1017.27
2023-03-03T04:20:52.333Z,1017.23
2023-03-03T04:21:52.322Z,1017.27
2023-03-03T04:22:52.353Z,1017.29
2023-03-03T04:23:52.301Z,1017.27
2023-03-03T04:24:52.302Z,1017.31
2023-03-03T04:25:52.283Z,1017.27
2023-03-03T04:26:52.272Z,1017.26
2023-03-03T04:27:52.280Z,1017.24
2023-03-03T04:28:52.241Z,1017.23
2023-03-03T04:29:52.278Z,1017.23
2023-03-03T04:30:52.274Z,1017.21
2023-03-03T04:31:52.329Z,1017.22
2023-03-03T04:32:52.209Z,1017.17
2023-03-03T04:33:52.199Z,1017.21
2023-03-03T04:34:58.598Z,1017.21
2023-03-03T04:35:53.278Z,1017.25
2023-03-03T04:36:52.153Z,1017.22
2023-03-03T04:37:52.164Z,1017.30
2023-03-03T04:38:52.142Z,1017.32
2023-03-03T04:39:52.131Z,1017.35
2023-03-03T04:40:52.120Z,1017.38
2023-03-03T04:41:52.106Z,1017.32
2023-03-03T04:42:52.095Z,1017.36
2023-03-03T04:43:52.086Z,1017.36
2023-03-03T04:44:52.061Z,1017.36
2023-03-03T04:45:52.185Z,1017.31
2023-03-03T04:46:52.046Z,1017.30
2023-03-03T04:47:52.030Z,1017.30
2023-03-03T04:48:52.030Z,1017.31
2023-03-03T04:49:52.035Z,1017.30
2023-03-03T04:50:52.019Z,1017.37
2023-03-03T04:51:51.989Z,1017.38
2023-03-03T04:52:51.972Z,1017.38
2023-03-03T04:53:51.980Z,1017.40
2023-03-03T04:54:51.954Z,1017.38
2023-03-03T04:55:51.965Z,1017.38
2023-03-03T04:56:51.947Z,1017.41
2023-03-03T04:57:51.939Z,1017.47
2023-03-03T04:58:51.931Z,1017.48
2023-03-03T04:59:51.918Z,1017.48
2023-03-03T05:00:51.914Z,1017.48
2023-03-03T05:01:52.003Z,1017.49
2023-03-03T05:02:51.868Z,1017.54
2023-03-03T05:03:51.858Z,1017.58
2023-03-03T05:04:51.929Z,1017.55
2023-03-03T05:05:51.852Z,1017.54
2023-03-03T05:06:51.846Z,1017.52
2023-03-03T05:07:51.824Z,1017.52
2023-03-03T05:08:51.797Z,1017.56
2023-03-03T05:09:51.776Z,1017.59
2023-03-03T05:10:51.779Z,1017.57
2023-03-03T05:11:51.751Z,1017.56
2023-03-03T05:12:51.742Z,1017.54
2023-03-03T05:13:51.742Z,1017.57
2023-03-03T05:14:51.733Z,1017.57
2023-03-03T05:15:51.780Z,1017.56
2023-03-03T05:16:51.712Z,1017.54
2023-03-03T05:17:51.720Z,1017.59
2023-03-03T05:18:51.683Z,1017.58
2023-03-03T05:19:51.665Z,1017.71
2023-03-03T05:20:51.697Z,1017.73
2023-03-03T05:21:51.634Z,1017.74
2023-03-03T05:22:51.641Z,1017.71
2023-03-03T05:23:51.625Z,1017.74
2023-03-03T05:24:51.637Z,1017.77
2023-03-03T05:25:51.602Z,1017.79
2023-03-03T05:26:51.592Z,1017.79
2023-03-03T05:27:51.579Z,1017.74
2023-03-03T05:28:51.559Z,1017.73
2023-03-03T05:29:51.543Z,1017.75
2023-03-03T05:30:51.577Z,1017.73
2023-03-03T05:31:51.533Z,1017.71
2023-03-03T05:32:51.518Z,1017.73
2023-03-03T05:33:51.566Z,1017.74
2023-03-03T05:34:51.490Z,1017.76
2023-03-03T05:35:51.550Z,1017.75
2023-03-03T05:36:51.479Z,1017.80
2023-03-03T05:37:51.450Z,1017.78
2023-03-03T05:38:51.456Z,1017.79
2023-03-03T05:39:51.452Z,1017.78
2023-03-03T05:40:51.449Z,1017.80
2023-03-03T05:41:51.412Z,1017.80
2023-03-03T05:42:51.505Z,1017.85
2023-03-03T05:43:51.405Z,1017.81
2023-03-03T05:44:51.422Z,1017.86
2023-03-03T05:45:51.374Z,1017.90
2023-03-03T05:46:51.400Z,1017.87
2023-03-03T05:47:51.342Z,1017.91
2023-03-03T05:48:51.335Z,1017.89
2023-03-03T05:49:51.350Z,1017.87
2023-03-03T05:50:51.348Z,1017.86
2023-03-03T05:51:51.329Z,1017.86
2023-03-03T05:52:51.310Z,1017.85
2023-03-03T05:53:51.301Z,1017.88
2023-03-03T05:54:51.272Z,1017.93
2023-03-03T05:55:51.254Z,1017.95
2023-03-03T05:56:51.305Z,1017.91
2023-03-03T05:57:51.248Z,1017.91
2023-03-03T05:58:51.262Z,1017.91
2023-03-03T05:59:51.223Z,1017.89
2023-03-03T06:00:51.231Z,1017.91
2023-03-03T06:01:51.240Z,1017.89
2023-03-03T06:02:51.248Z,1017.87
2023-03-03T06:03:51.177Z,1017.87
2023-03-03T06:04:51.171Z,1017.84
2023-03-03T06:05:51.170Z,1017.85
2023-03-03T06:06:51.163Z,1017.88
2023-03-03T06:07:51.116Z,1017.89
2023-03-03T06:08:51.129Z,1017.85
2023-03-03T06:09:51.102Z,1017.85
2023-03-03T06:10:51.109Z,1017.88
2023-03-03T06:11:51.086Z,1017.87
2023-03-03T06:12:51.068Z,1017.90
2023-03-03T06:13:51.052Z,1017.89
2023-03-03T06:14:51.045Z,1017.89
2023-03-03T06:15:51.025Z,1017.90
2023-03-03T06:16:51.045Z,1017.95
2023-03-03T06:17:51.002Z,1017.97
2023-03-03T06:18:51.013Z,1018.01
2023-03-03T06:19:50.983Z,1018.00
2023-03-03T06:20:50.975Z,1018.01
2023-03-03T06:21:51.084Z,1018.01
2023-03-03T06:22:50.952Z,1018.01
2023-03-03T06:23:50.961Z,1017.98
2023-03-03T06:24:50.933Z,1017.98
2023-03-03T06:25:50.914Z,1017.98
2023-03-03T06:26:50.943Z,1017.96
2023-03-03T06:27:50.909Z,1017.97
2023-03-03T06:28:50.882Z,1017.96
2023-03-03T06:29:50.881Z,1017.96
2023-03-03T06:30:50.877Z,1017.96
2023-03-03T06:31:50.988Z,1017.97
2023-03-03T06:32:50.851Z,1017.98
2023-03-03T06:33:50.820Z,1017.96
2023-03-03T06:34:50.820Z,1018.01
2023-03-03T06:35:50.870Z,1018.03
2023-03-03T06:36:50.808Z,1018.07
2023-03-03T06:37:50.889Z,1018.07
2023-03-03T06:38:50.770Z,1018.08
2023-03-03T06:39:50.765Z,1018.09
2023-03-03T06:40:50.769Z,1018.09
2023-03-03T06:41:50.746Z,1018.16
2023-03-03T06:42:50.746Z,1018.18
2023-03-03T06:43:51.352Z,1018.19
2023-03-03T06:44:50.715Z,1018.18
2023-03-03T06:45:50.768Z,1018.22
2023-03-03T06:46:50.694Z,1018.22
2023-03-03T06:47:50.671Z,1018.24
2023-03-03T06:48:50.668Z,1018.29
2023-03-03T06:49:50.653Z,1018.30
2023-03-03T06:50:50.647Z,1018.33
2023-03-03T06:51:50.647Z,1018.36
2023-03-03T06:52:50.622Z,1018.40
2023-03-03T06:53:50.624Z,1018.43
2023-03-03T06:54:50.588Z,1018.49
2023-03-03T06:55:50.572Z,1018.49
2023-03-03T06:56:50.596Z,1018.48
2023-03-03T06:57:50.550Z,1018.46
2023-03-03T06:58:50.545Z,1018.46
2023-03-03T06:59:50.528Z,1018.43
2023-03-03T07:00:50.584Z,1018.48
2023-03-03T07:01:50.517Z,1018.57
2023-03-03T07:02:50.500Z,1018.58
2023-03-03T07:03:50.542Z,1018.60
2023-03-03T07:04:50.502Z,1018.61
2023-03-03T07:05:50.480Z,1018.56
2023-03-03T07:06:50.491Z,1018.60
2023-03-03T07:07:50.444Z,1018.67
2023-03-03T07:08:50.456Z,1018.62
2023-03-03T07:09:50.463Z,1018.60
2023-03-03T07:10:50.435Z,1018.57
2023-03-03T07:11:50.415Z,1018.60
2023-03-03T07:12:50.423Z,1018.54
2023-03-03T07:13:50.398Z,1018.57
2023-03-03T07:14:50.391Z,1018.60
2023-03-03T07:15:50.373Z,1018.57
2023-03-03T07:16:50.397Z,1018.57
2023-03-03T07:17:51.314Z,1018.65
2023-03-03T07:18:50.357Z,1018.66
2023-03-03T07:19:50.417Z,1018.64
2023-03-03T07:20:50.331Z,1018.58
2023-03-03T07:21:50.295Z,1018.62
2023-03-03T07:22:50.300Z,1018.61
2023-03-03T07:23:50.286Z,1018.66
2023-03-03T07:24:52.753Z,1018.61
2023-03-03T07:25:50.299Z,1018.64
2023-03-03T07:26:50.264Z,1018.65
2023-03-03T07:27:50.259Z,1018.66
2023-03-03T07:28:50.220Z,1018.71
2023-03-03T07:29:50.211Z,1018.77
2023-03-03T07:30:50.259Z,1018.74
2023-03-03T07:31:50.197Z,1018.70
2023-03-03T07:32:50.188Z,1018.69
2023-03-03T07:33:50.161Z,1018.72
2023-03-03T07:34:50.166Z,1018.76
2023-03-03T07:35:50.224Z,1018.80
2023-03-03T07:36:50.131Z,1018.81
2023-03-03T07:37:50.144Z,1018.82
2023-03-03T07:38:50.116Z,1018.82
2023-03-03T07:39:50.094Z,1018.78
2023-03-03T07:40:50.100Z,1018.78
2023-03-03T07:41:50.096Z,1018.84
2023-03-03T07:42:50.093Z,1018.82
2023-03-03T07:43:50.069Z,1018.84
2023-03-03T07:44:50.044Z,1018.89
2023-03-03T07:45:50.083Z,1018.81
2023-03-03T07:46:50.033Z,1018.87
2023-03-03T07:47:50.035Z,1018.88
2023-03-03T07:48:49.995Z,1018.88
2023-03-03T07:49:49.997Z,1018.89
2023-03-03T07:50:50.012Z,1018.91
2023-03-03T07:51:49.962Z,1018.89
2023-03-03T07:52:49.972Z,1018.90
2023-03-03T07:53:49.987Z,1018.90
2023-03-03T07:54:49.929Z,1018.94
2023-03-03T07:55:49.928Z,1018.89
2023-03-03T07:56:49.908Z,1018.95
2023-03-03T07:57:49.925Z,1018.93
2023-03-03T07:58:49.886Z,1018.92
2023-03-03T07:59:49.895Z,1018.92
2023-03-03T08:00:49.898Z,1018.95
2023-03-03T08:01:49.862Z,1018.98
2023-03-03T08:02:49.872Z,1018.98
2023-03-03T08:03:49.828Z,1018.97
2023-03-03T08:04:50.057Z,1018.96
2023-03-03T08:05:49.823Z,1019.03
2023-03-03T08:06:49.806Z,1019.08
2023-03-03T08:07:49.812Z,1019.06
2023-03-03T08:08:49.778Z,1019.05
2023-03-03T08:09:49.759Z,1019.05
2023-03-03T08:10:49.803Z,1019.08
2023-03-03T08:11:49.771Z,1019.06
2023-03-03T08:12:49.744Z,1019.05
2023-03-03T08:13:49.757Z,1019.04
2023-03-03T08:14:49.699Z,1019.04
2023-03-03T08:15:49.797Z,1019.04
2023-03-03T08:16:49.674Z,1019.02
2023-03-03T08:17:49.689Z,1019.04
2023-03-03T08:18:49.652Z,1019.05
2023-03-03T08:19:49.633Z,1019.09
2023-03-03T08:20:49.643Z,1019.09
2023-03-03T08:21:49.624Z,1019.09
2023-03-03T08:22:49.630Z,1019.08
2023-03-03T08:23:49.591Z,1019.11
2023-03-03T08:24:49.586Z,1019.12
2023-03-03T08:25:49.565Z,1019.11
2023-03-03T08:26:49.568Z,1019.11
2023-03-03T08:27:49.556Z,1019.13
2023-03-03T08:28:49.544Z,1019.15
2023-03-03T08:29:49.555Z,1019.17
2023-03-03T08:30:49.539Z,1019.16
2023-03-03T08:31:49.556Z,1019.17
2023-03-03T08:32:49.547Z,1019.18
2023-03-03T08:33:49.473Z,1019.21
2023-03-03T08:34:49.478Z,1019.23
2023-03-03T08:35:49.489Z,1019.23
2023-03-03T08:36:49.472Z,1019.27
2023-03-03T08:37:49.446Z,1019.27
2023-03-03T08:38:49.425Z,1019.27
2023-03-03T08:39:49.412Z,1019.30
2023-03-03T08:40:49.406Z,1019.29
2023-03-03T08:41:49.380Z,1019.32
2023-03-03T08:42:49.386Z,1019.32
2023-03-03T08:43:49.360Z,1019.31
2023-03-03T08:44:49.361Z,1019.35
2023-03-03T08:45:49.370Z,1019.41
2023-03-03T08:46:49.415Z,1019.36
2023-03-03T08:47:49.426Z,1019.35
2023-03-03T08:48:49.318Z,1019.36
2023-03-03T08:49:49.293Z,1019.39
2023-03-03T08:50:49.283Z,1019.39
2023-03-03T08:51:49.266Z,1019.36
2023-03-03T08:52:49.288Z,1019.38
2023-03-03T08:53:49.244Z,1019.38
2023-03-03T08:54:49.252Z,1019.39
2023-03-03T08:55:49.236Z,1019.37
2023-03-03T08:56:49.235Z,1019.36
2023-03-03T08:57:49.230Z,1019.36
2023-03-03T08:59:01.627Z,1019.41
2023-03-03T08:59:50.186Z,1019.41
2023-03-03T09:00:51.197Z,1019.42
2023-03-03T09:01:49.220Z,1019.45
2023-03-03T09:02:49.163Z,1019.44
2023-03-03T09:03:49.146Z,1019.44
2023-03-03T09:04:49.151Z,1019.44
2023-03-03T09:05:49.136Z,1019.41
2023-03-03T09:06:49.101Z,1019.46
2023-03-03T09:07:49.106Z,1019.47
2023-03-03T09:08:49.091Z,1019.43
2023-03-03T09:09:49.070Z,1019.48
2023-03-03T09:10:49.073Z,1019.39
2023-03-03T09:11:49.072Z,1019.44
2023-03-03T09:12:49.064Z,1019.47
2023-03-03T09:13:49.018Z,1019.48
2023-03-03T09:14:49.031Z,1019.48
2023-03-03T09:15:49.185Z,1019.54
2023-03-03T09:16:48.986Z,1019.52
2023-03-03T09:17:49.011Z,1019.53
2023-03-03T09:18:48.991Z,1019.55
2023-03-03T09:19:48.963Z,1019.49
2023-03-03T09:20:48.956Z,1019.51
2023-03-03T09:21:48.944Z,1019.51
2023-03-03T09:22:48.934Z,1019.49
2023-03-03T09:23:48.922Z,1019.55
2023-03-03T09:24:48.914Z,1019.56
2023-03-03T09:25:48.900Z,1019.52
2023-03-03T09:26:48.881Z,1019.54
2023-03-03T09:27:48.888Z,1019.56
2023-03-03T09:28:48.873Z,1019.54
2023-03-03T09:29:48.851Z,1019.55
2023-03-03T09:30:48.832Z,1019.54
2023-03-03T09:31:48.860Z,1019.58
2023-03-03T09:32:48.837Z,1019.57
2023-03-03T09:33:48.821Z,1019.58
2023-03-03T09:34:48.792Z,1019.62
2023-03-03T09:35:48.820Z,1019.62
2023-03-03T09:36:48.761Z,1019.62
2023-03-03T09:37:48.783Z,1019.60
2023-03-03T09:38:48.750Z,1019.68
2023-03-03T09:39:48.752Z,1019.63
2023-03-03T09:40:48.726Z,1019.64
2023-03-03T09:41:48.711Z,1019.60
2023-03-03T09:42:48.706Z,1019.64
2023-03-03T09:43:48.684Z,1019.62
2023-03-03T09:44:48.681Z,1019.69
2023-03-03T09:45:48.678Z,1019.71
2023-03-03T09:46:48.757Z,1019.73
2023-03-03T09:47:48.659Z,1019.76
2023-03-03T09:48:48.628Z,1019.78
2023-03-03T09:49:48.659Z,1019.77
2023-03-03T09:50:48.621Z,1019.79
2023-03-03T09:51:48.604Z,1019.76
2023-03-03T09:52:48.604Z,1019.76
2023-03-03T09:53:49.214Z,1019.77
2023-03-03T09:54:48.565Z,1019.75
2023-03-03T09:55:48.548Z,1019.77
2023-03-03T09:56:48.531Z,1019.78
2023-03-03T09:57:55.731Z,1019.79
2023-03-03T09:58:49.522Z,1019.80
2023-03-03T09:59:48.516Z,1019.81
2023-03-03T10:00:48.498Z,1019.82
2023-03-03T10:01:48.493Z,1019.88
2023-03-03T10:02:49.096Z,1019.88
2023-03-03T10:03:48.526Z,1019.89
2023-03-03T10:04:48.769Z,1019.89
2023-03-03T10:05:48.777Z,1019.94
2023-03-03T10:06:48.418Z,1019.93
2023-03-03T10:07:48.442Z,1019.92
2023-03-03T10:08:48.411Z,1019.93
2023-03-03T10:09:48.404Z,1019.93
2023-03-03T10:10:48.393Z,1019.94
2023-03-03T10:11:48.766Z,1019.95
2023-03-03T10:12:48.533Z,1019.93
2023-03-03T10:13:48.355Z,1019.91
2023-03-03T10:14:48.341Z,1019.91
2023-03-03T10:15:48.338Z,1019.90
2023-03-03T10:16:48.374Z,1019.93
2023-03-03T10:17:48.648Z,1019.91
2023-03-03T10:18:48.657Z,1019.93
2023-03-03T10:19:48.298Z,1019.86
2023-03-03T10:20:51.314Z,1019.90
2023-03-03T10:21:48.282Z,1019.86
2023-03-03T10:22:48.252Z,1019.80
2023-03-03T10:23:48.568Z,1019.85
2023-03-03T10:24:48.216Z,1019.87
2023-03-03T10:25:48.487Z,1019.86
2023-03-03T10:27:01.759Z,1019.83
2023-03-03T10:27:49.285Z,1019.84
2023-03-03T10:28:48.180Z,1019.81
2023-03-03T10:29:48.188Z,1019.83
2023-03-03T10:31:02.581Z,1019.91
2023-03-03T10:31:49.286Z,1019.87
2023-03-03T10:32:48.405Z,1019.86
2023-03-03T10:33:48.260Z,1019.89
2023-03-03T10:34:48.113Z,1019.90
2023-03-03T10:36:04.662Z,1019.92
2023-03-03T10:36:49.095Z,1019.89
2023-03-03T10:37:48.131Z,1019.90
2023-03-03T10:38:48.082Z,1019.88
2023-03-03T10:39:48.052Z,1019.87
2023-03-03T10:40:48.037Z,1019.87
2023-03-03T10:41:48.045Z,1019.89
2023-03-03T10:42:48.048Z,1019.88
2023-03-03T10:43:48.032Z,1019.89
2023-03-03T10:44:47.992Z,1019.89
2023-03-03T10:45:48.036Z,1019.87
2023-03-03T10:46:47.983Z,1019.88
2023-03-03T10:47:47.960Z,1019.87
2023-03-03T10:48:47.983Z,1019.86
2023-03-03T10:49:47.950Z,1019.84
2023-03-03T10:50:47.952Z,1019.76
2023-03-03T10:51:47.913Z,1019.77
2023-03-03T10:52:47.911Z,1019.76
2023-03-03T10:53:47.937Z,1019.78
2023-03-03T10:54:47.918Z,1019.79
2023-03-03T10:55:47.960Z,1019.79
2023-03-03T10:56:53.332Z,1019.83
2023-03-03T10:57:48.849Z,1019.84
2023-03-03T10:58:47.936Z,1019.86
2023-03-03T10:59:47.861Z,1019.84
2023-03-03T11:00:47.881Z,1019.84
2023-03-03T11:01:47.801Z,1019.87
2023-03-03T11:02:47.788Z,1019.87
2023-03-03T11:03:47.793Z,1019.90
2023-03-03T11:04:47.881Z,1019.86
2023-03-03T11:05:47.791Z,1019.85
2023-03-03T11:06:47.741Z,1019.86
2023-03-03T11:07:47.750Z,1019.87
2023-03-03T11:08:47.718Z,1019.86
2023-03-03T11:09:47.747Z,1019.86
2023-03-03T11:10:47.724Z,1019.81
2023-03-03T11:11:47.704Z,1019.84
2023-03-03T11:12:47.727Z,1019.89
2023-03-03T11:13:47.665Z,1019.86
2023-03-03T11:14:47.675Z,1019.88
2023-03-03T11:15:47.661Z,1019.90
2023-03-03T11:16:47.748Z,1019.90
2023-03-03T11:17:47.640Z,1019.90
2023-03-03T11:18:47.614Z,1019.92
2023-03-03T11:19:47.629Z,1019.91
2023-03-03T11:20:47.603Z,1019.91
2023-03-03T11:21:47.591Z,1019.87
2023-03-03T11:22:47.580Z,1019.85
2023-03-03T11:23:47.565Z,1019.85
2023-03-03T11:24:47.553Z,1019.84
2023-03-03T11:25:47.565Z,1019.88
2023-03-03T11:26:47.561Z,1019.78
2023-03-03T11:27:47.531Z,1019.78
2023-03-03T11:28:47.494Z,1019.77
2023-03-03T11:29:47.487Z,1019.80
2023-03-03T11:30:47.511Z,1019.79
2023-03-03T11:31:47.467Z,1019.78
2023-03-03T11:32:47.479Z,1019.79
2023-03-03T11:33:47.443Z,1019.77
2023-03-03T11:34:47.442Z,1019.79
2023-03-03T11:35:47.432Z,1019.80
2023-03-03T11:36:47.404Z,1019.84
2023-03-03T11:37:47.411Z,1019.79
2023-03-03T11:38:47.392Z,1019.83
2023-03-03T11:39:47.373Z,1019.81
2023-03-03T11:40:47.370Z,1019.85
2023-03-03T11:41:47.416Z,1019.80
2023-03-03T11:42:47.366Z,1019.82
2023-03-03T11:43:47.343Z,1019.87
2023-03-03T11:44:47.357Z,1019.78
2023-03-03T11:45:47.408Z,1019.81
2023-03-03T11:46:47.290Z,1019.77
2023-03-03T11:47:47.318Z,1019.75
2023-03-03T11:48:47.288Z,1019.75
2023-03-03T11:49:47.277Z,1019.75
2023-03-03T11:50:47.250Z,1019.77
2023-03-03T11:51:47.258Z,1019.80
2023-03-03T11:52:47.239Z,1019.78
2023-03-03T11:53:47.234Z,1019.74
2023-03-03T11:54:47.197Z,1019.70
2023-03-03T11:55:47.265Z,1019.69
2023-03-03T11:56:47.189Z,1019.62
2023-03-03T11:57:47.222Z,1019.65
2023-03-03T11:58:47.182Z,1019.61
2023-03-03T11:59:47.159Z,1019.55
2023-03-03T12:00:47.135Z,1019.56
2023-03-03T12:01:47.144Z,1019.55
2023-03-03T12:02:47.179Z,1019.50
2023-03-03T12:03:47.100Z,1019.49
2023-03-03T12:04:47.153Z,1019.49
2023-03-03T12:05:47.131Z,1019.43